createdAt,value
2023-08-29T00:00:55.118Z,90.197754
2023-08-29T00:02:03.821Z,89.990234
2023-08-29T00:03:13.501Z,90.539551
2023-08-29T00:04:22.236Z,90.39917
2023-08-29T00:05:30.918Z,89.990234
2023-08-29T00:06:39.582Z,89.385986
2023-08-29T00:07:48.226Z,89.788818
2023-08-29T00:08:57.936Z,89.385986
2023-08-29T00:10:05.667Z,89.587402
2023-08-29T00:11:14.331Z,89.385986
2023-08-29T00:12:24.048Z,89.788818
2023-08-29T00:13:32.728Z,89.385986
2023-08-29T00:14:41.407Z,89.544678
2023-08-29T00:15:50.176Z,89.483643
2023-08-29T00:16:59.873Z,89.385986
2023-08-29T00:18:08.862Z,89.239502
2023-08-29T00:19:18.249Z,89.141846
2023-08-29T00:20:27.921Z,89.141846
2023-08-29T00:21:36.638Z,89.343262
2023-08-29T00:22:45.315Z,89.239502
2023-08-29T00:23:53.994Z,89.343262
2023-08-29T00:25:03.684Z,89.483643
2023-08-29T00:26:13.364Z,89.587402
2023-08-29T00:27:23.054Z,89.691162
2023-08-29T00:28:31.743Z,89.733887
2023-08-29T00:29:41.456Z,89.691162
2023-08-29T00:30:50.137Z,89.990234
2023-08-29T00:31:58.826Z,89.892578
2023-08-29T00:33:07.535Z,89.990234
2023-08-29T00:34:16.197Z,89.990234
2023-08-29T00:35:25.873Z,90.136719
2023-08-29T00:36:33.542Z,90.338135
2023-08-29T00:37:42.275Z,89.831543
2023-08-29T00:38:51.931Z,90.240479
2023-08-29T00:40:00.624Z,90.240479
2023-08-29T00:41:09.254Z,89.990234
2023-08-29T00:42:17.967Z,89.733887
2023-08-29T00:43:27.684Z,90.441895
2023-08-29T00:44:37.344Z,90.74707
2023-08-29T00:45:46.073Z,90.948486
2023-08-29T00:46:54.737Z,90.338135
2023-08-29T00:48:05.169Z,90.093994
2023-08-29T00:49:14.425Z,90.948486
2023-08-29T00:50:24.193Z,90.991211
2023-08-29T00:51:33.854Z,91.033936
2023-08-29T00:52:42.525Z,91.638184
2023-08-29T00:53:52.268Z,92.144775
2023-08-29T00:55:00.942Z,91.943359
2023-08-29T00:56:09.657Z,91.943359
2023-08-29T00:57:19.348Z,91.943359
2023-08-29T00:58:29.018Z,91.845703
2023-08-29T00:59:37.703Z,91.235352
2023-08-29T01:00:47.384Z,91.436768
2023-08-29T01:01:56.057Z,91.583252
2023-08-29T01:03:05.798Z,91.339111
2023-08-29T01:04:15.452Z,91.235352
2023-08-29T01:05:24.113Z,90.930176
2023-08-29T01:06:32.828Z,90.930176
2023-08-29T01:07:41.448Z,91.235352
2023-08-29T01:08:50.119Z,91.235352
2023-08-29T01:09:59.864Z,91.131592
2023-08-29T01:11:08.552Z,91.235352
2023-08-29T01:12:17.250Z,91.174316
2023-08-29T01:13:26.917Z,91.131592
2023-08-29T01:14:35.648Z,91.033936
2023-08-29T01:15:44.323Z,90.771484
2023-08-29T01:16:52.973Z,91.174316
2023-08-29T01:18:01.806Z,91.424561
2023-08-29T01:19:11.404Z,91.522217
2023-08-29T01:20:20.106Z,91.522217
2023-08-29T01:21:28.791Z,91.424561
2023-08-29T01:22:38.499Z,91.870117
2023-08-29T01:23:48.162Z,91.870117
2023-08-29T01:24:57.834Z,91.729736
2023-08-29T01:26:06.503Z,91.668701
2023-08-29T01:27:15.248Z,91.973877
2023-08-29T01:28:24.947Z,92.071533
2023-08-29T01:29:32.668Z,91.729736
2023-08-29T01:30:40.341Z,91.729736
2023-08-29T01:31:50.074Z,91.479492
2023-08-29T01:32:58.724Z,90.930176
2023-08-29T01:34:07.401Z,90.875244
2023-08-29T01:35:19.115Z,90.875244
2023-08-29T01:36:28.700Z,91.424561
2023-08-29T01:37:38.363Z,91.479492
2023-08-29T01:38:47.107Z,91.278076
2023-08-29T01:39:54.747Z,91.174316
2023-08-29T01:41:04.436Z,90.9729
2023-08-29T01:42:13.138Z,90.9729
2023-08-29T01:43:22.798Z,91.217041
2023-08-29T01:44:31.489Z,91.424561
2023-08-29T01:45:40.217Z,91.522217
2023-08-29T01:46:49.854Z,91.217041
2023-08-29T01:47:57.535Z,90.917969
2023-08-29T01:49:05.200Z,91.119385
2023-08-29T01:50:14.909Z,90.9729
2023-08-29T01:51:23.594Z,90.710449
2023-08-29T01:52:32.297Z,90.710449
2023-08-29T01:53:40.981Z,91.07666
2023-08-29T01:54:50.671Z,90.570068
2023-08-29T01:56:00.317Z,90.570068
2023-08-29T01:57:07.968Z,90.307617
2023-08-29T01:58:16.659Z,90.466309
2023-08-29T01:59:26.342Z,90.362549
2023-08-29T02:00:36.063Z,90.710449
2023-08-29T02:01:46.781Z,90.667725
2023-08-29T02:02:54.454Z,90.307617
2023-08-29T02:04:04.146Z,91.363525
2023-08-29T02:05:13.822Z,91.772461
2023-08-29T02:06:22.527Z,91.870117
2023-08-29T02:07:31.245Z,91.467285
2023-08-29T02:08:40.934Z,91.162109
2023-08-29T02:09:49.645Z,91.363525
2023-08-29T02:10:59.371Z,91.363525
2023-08-29T02:12:09.024Z,91.564941
2023-08-29T02:13:18.762Z,91.363525
2023-08-29T02:14:28.439Z,92.016602
2023-08-29T02:15:36.142Z,91.912842
2023-08-29T02:16:44.891Z,91.815186
2023-08-29T02:17:54.853Z,92.260742
2023-08-29T02:19:03.294Z,92.120361
2023-08-29T02:20:11.960Z,91.711426
2023-08-29T02:21:20.655Z,91.815186
2023-08-29T02:22:29.359Z,91.30249
2023-08-29T02:23:39.079Z,91.363525
2023-08-29T02:24:47.761Z,90.856934
2023-08-29T02:25:56.464Z,90.960693
2023-08-29T02:27:06.207Z,90.447998
2023-08-29T02:28:15.866Z,90.655518
2023-08-29T02:29:24.565Z,90.753174
2023-08-29T02:30:33.250Z,90.350342
2023-08-29T02:31:41.931Z,90.795898
2023-08-29T02:32:51.711Z,91.247559
2023-08-29T02:34:01.330Z,91.345215
2023-08-29T02:35:09.021Z,91.51001
2023-08-29T02:36:18.755Z,91.003418
2023-08-29T02:37:27.418Z,91.204834
2023-08-29T02:38:36.132Z,90.899658
2023-08-29T02:39:44.799Z,91.003418
2023-08-29T02:40:53.462Z,91.30249
2023-08-29T02:42:02.149Z,91.30249
2023-08-29T02:43:09.878Z,91.101074
2023-08-29T02:44:18.617Z,90.698242
2023-08-29T02:45:28.275Z,90.942383
2023-08-29T02:46:37.004Z,91.101074
2023-08-29T02:47:45.708Z,90.942383
2023-08-29T02:48:54.395Z,91.345215
2023-08-29T02:50:04.092Z,91.448975
2023-08-29T02:51:13.772Z,91.448975
2023-08-29T02:52:22.534Z,91.387939
2023-08-29T02:53:31.336Z,91.650391
2023-08-29T02:54:41.032Z,91.650391
2023-08-29T02:55:49.752Z,91.143799
2023-08-29T02:56:58.419Z,91.143799
2023-08-29T02:58:07.354Z,91.204834
2023-08-29T02:59:15.845Z,90.899658
2023-08-29T03:00:24.546Z,91.101074
2023-08-29T03:01:34.264Z,90.795898
2023-08-29T03:02:42.996Z,90.698242
2023-08-29T03:03:51.752Z,90.490723
2023-08-29T03:05:01.384Z,90.393066
2023-08-29T03:06:10.087Z,91.101074
2023-08-29T03:07:19.770Z,90.838623
2023-08-29T03:08:27.500Z,91.552734
2023-08-29T03:09:37.199Z,91.247559
2023-08-29T03:10:46.906Z,91.247559
2023-08-29T03:11:55.576Z,91.85791
2023-08-29T03:13:05.303Z,91.75415
2023-08-29T03:14:15.002Z,91.247559
2023-08-29T03:15:24.741Z,91.247559
2023-08-29T03:16:34.412Z,91.552734
2023-08-29T03:17:44.112Z,91.650391
2023-08-29T03:18:51.781Z,90.899658
2023-08-29T03:20:01.459Z,91.75415
2023-08-29T03:21:10.170Z,91.650391
2023-08-29T03:22:18.867Z,91.75415
2023-08-29T03:23:27.536Z,91.85791
2023-08-29T03:24:36.236Z,91.998291
2023-08-29T03:25:46.008Z,92.303467
2023-08-29T03:26:54.699Z,92.260742
2023-08-29T03:28:04.694Z,91.345215
2023-08-29T03:29:14.151Z,91.85791
2023-08-29T03:30:22.880Z,91.552734
2023-08-29T03:31:32.569Z,91.30249
2023-08-29T03:32:42.314Z,91.101074
2023-08-29T03:33:51.931Z,91.345215
2023-08-29T03:35:01.685Z,91.448975
2023-08-29T03:36:10.330Z,91.85791
2023-08-29T03:37:19.061Z,91.552734
2023-08-29T03:38:29.760Z,91.75415
2023-08-29T03:39:38.443Z,91.552734
2023-08-29T03:40:47.164Z,91.815186
2023-08-29T03:41:55.911Z,91.448975
2023-08-29T03:43:05.608Z,91.650391
2023-08-29T03:44:15.279Z,91.204834
2023-08-29T03:45:24.964Z,91.259766
2023-08-29T03:46:33.658Z,90.447998
2023-08-29T03:47:43.436Z,91.204834
2023-08-29T03:48:53.016Z,90.447998
2023-08-29T03:50:02.692Z,90.753174
2023-08-29T03:51:11.364Z,91.003418
2023-08-29T03:52:21.074Z,91.448975
2023-08-29T03:53:30.773Z,91.40625
2023-08-29T03:54:39.448Z,91.51001
2023-08-29T03:55:47.138Z,90.960693
2023-08-29T03:56:55.822Z,90.753174
2023-08-29T03:58:05.716Z,90.753174
2023-08-29T03:59:14.239Z,90.655518
2023-08-29T04:00:22.903Z,90.753174
2023-08-29T04:01:31.573Z,90.447998
2023-08-29T04:02:41.476Z,90.447998
2023-08-29T04:03:52.696Z,90.551758
2023-08-29T04:04:58.745Z,90.045166
2023-08-29T04:06:08.377Z,90.350342
2023-08-29T04:07:18.057Z,90.509033
2023-08-29T04:08:27.718Z,90.142822
2023-08-29T04:09:36.422Z,90.350342
2023-08-29T04:10:46.165Z,90.655518
2023-08-29T04:11:55.888Z,90.045166
2023-08-29T04:13:04.710Z,90.551758
2023-08-29T04:14:13.373Z,90.856934
2023-08-29T04:15:23.108Z,90.960693
2023-08-29T04:16:31.881Z,90.509033
2023-08-29T04:17:40.578Z,90.307617
2023-08-29T04:18:49.211Z,90.002441
2023-08-29T04:19:57.891Z,90.246582
2023-08-29T04:21:07.628Z,90.856934
2023-08-29T04:22:16.324Z,91.162109
2023-08-29T04:23:24.999Z,90.447998
2023-08-29T04:24:34.737Z,90.795898
2023-08-29T04:25:43.405Z,91.467285
2023-08-29T04:26:52.117Z,90.856934
2023-08-29T04:28:00.773Z,90.753174
2023-08-29T04:29:09.717Z,90.405273
2023-08-29T04:30:19.407Z,90.203857
2023-08-29T04:31:27.098Z,90.655518
2023-08-29T04:32:35.845Z,91.05835
2023-08-29T04:33:45.451Z,91.30249
2023-08-29T04:34:55.171Z,91.162109
2023-08-29T04:36:04.857Z,91.05835
2023-08-29T04:37:14.579Z,90.856934
2023-08-29T04:38:24.287Z,90.960693
2023-08-29T04:39:34.020Z,90.856934
2023-08-29T04:40:42.778Z,90.960693
2023-08-29T04:41:50.448Z,91.003418
2023-08-29T04:43:00.183Z,91.259766
2023-08-29T04:44:10.039Z,91.003418
2023-08-29T04:45:18.703Z,91.259766
2023-08-29T04:46:28.430Z,90.960693
2023-08-29T04:47:37.165Z,91.05835
2023-08-29T04:48:46.834Z,90.710449
2023-08-29T04:49:54.524Z,90.307617
2023-08-29T04:51:03.191Z,90.753174
2023-08-29T04:52:12.950Z,91.259766
2023-08-29T04:53:22.575Z,91.259766
2023-08-29T04:54:31.270Z,91.05835
2023-08-29T04:55:39.939Z,90.960693
2023-08-29T04:56:49.626Z,90.960693
2023-08-29T04:57:57.364Z,91.564941
2023-08-29T04:59:05.996Z,91.363525
2023-08-29T05:00:15.668Z,91.05835
2023-08-29T05:01:24.353Z,90.960693
2023-08-29T05:02:33.326Z,91.259766
2023-08-29T05:03:43.012Z,91.259766
2023-08-29T05:04:52.667Z,91.607666
2023-08-29T05:06:00.333Z,91.815186
2023-08-29T05:07:10.005Z,91.467285
2023-08-29T05:08:19.725Z,91.162109
2023-08-29T05:09:29.436Z,91.668701
2023-08-29T05:10:38.118Z,91.870117
2023-08-29T05:11:46.818Z,91.931152
2023-08-29T05:12:56.491Z,91.729736
2023-08-29T05:14:07.200Z,91.217041
2023-08-29T05:15:15.007Z,90.9729
2023-08-29T05:16:24.714Z,90.264893
2023-08-29T05:17:34.411Z,90.814209
2023-08-29T05:18:44.057Z,90.814209
2023-08-29T05:19:52.822Z,91.119385
2023-08-29T05:21:01.494Z,90.405273
2023-08-29T05:22:10.172Z,91.05835
2023-08-29T05:23:19.878Z,91.772461
2023-08-29T05:24:27.722Z,91.815186
2023-08-29T05:25:35.380Z,91.772461
2023-08-29T05:26:45.093Z,91.668701
2023-08-29T05:27:53.759Z,91.467285
2023-08-29T05:29:03.468Z,91.162109
2023-08-29T05:30:13.184Z,91.119385
2023-08-29T05:31:21.893Z,90.814209
2023-08-29T05:32:30.566Z,91.119385
2023-08-29T05:33:39.199Z,91.015625
2023-08-29T05:34:46.869Z,90.814209
2023-08-29T05:35:56.564Z,90.570068
2023-08-29T05:37:05.227Z,90.362549
2023-08-29T05:38:13.904Z,90.612793
2023-08-29T05:39:22.680Z,90.814209
2023-08-29T05:40:33.303Z,90.570068
2023-08-29T05:41:40.024Z,90.625
2023-08-29T05:42:48.793Z,90.075684
2023-08-29T05:43:56.535Z,89.770508
2023-08-29T05:45:06.212Z,89.367676
2023-08-29T05:46:14.899Z,89.4104
2023-08-29T05:47:24.600Z,89.105225
2023-08-29T05:48:34.315Z,89.550781
2023-08-29T05:49:43.055Z,89.758301
2023-08-29T05:50:52.718Z,89.758301
2023-08-29T05:52:01.403Z,90.161133
2023-08-29T05:53:10.188Z,89.758301
2023-08-29T05:54:19.847Z,90.362549
2023-08-29T05:55:28.534Z,90.667725
2023-08-29T05:56:38.225Z,89.813232
2023-08-29T05:57:47.887Z,90.362549
2023-08-29T05:58:57.547Z,90.771484
2023-08-29T06:00:07.265Z,90.570068
2023-08-29T06:01:16.055Z,90.362549
2023-08-29T06:02:24.678Z,90.423584
2023-08-29T06:03:34.431Z,89.813232
2023-08-29T06:04:43.045Z,90.118408
2023-08-29T06:05:51.732Z,89.813232
2023-08-29T06:07:00.497Z,90.020752
2023-08-29T06:08:18.863Z,89.51416
2023-08-29T06:09:20.832Z,90.319824
2023-08-29T06:10:28.523Z,89.916992
2023-08-29T06:11:37.194Z,90.423584
2023-08-29T06:12:46.986Z,89.916992
2023-08-29T06:13:56.659Z,90.264893
2023-08-29T06:15:06.736Z,90.570068
2023-08-29T06:16:15.429Z,91.174316
2023-08-29T06:17:24.094Z,90.771484
2023-08-29T06:18:33.801Z,91.07666
2023-08-29T06:19:41.468Z,90.771484
2023-08-29T06:20:51.204Z,90.466309
2023-08-29T06:22:00.893Z,90.710449
2023-08-29T06:23:09.573Z,91.119385
2023-08-29T06:24:19.265Z,91.320801
2023-08-29T06:25:28.974Z,91.278076
2023-08-29T06:26:37.682Z,91.278076
2023-08-29T06:27:47.353Z,91.278076
2023-08-29T06:28:55.100Z,91.033936
2023-08-29T06:30:03.797Z,90.930176
2023-08-29T06:31:13.504Z,90.83252
2023-08-29T06:32:22.204Z,90.83252
2023-08-29T06:33:30.896Z,90.423584
2023-08-29T06:34:39.636Z,90.72876
2023-08-29T06:35:48.307Z,90.2771
2023-08-29T06:36:57.992Z,90.222168
2023-08-29T06:38:05.907Z,90.466309
2023-08-29T06:39:13.487Z,90.930176
2023-08-29T06:40:23.217Z,90.423584
2023-08-29T06:41:31.950Z,90.527344
2023-08-29T06:42:41.636Z,90.319824
2023-08-29T06:43:51.305Z,90.222168
2023-08-29T06:44:59.987Z,90.582275
2023-08-29T06:46:09.666Z,89.874268
2023-08-29T06:47:18.386Z,90.075684
2023-08-29T06:48:28.082Z,90.020752
2023-08-29T06:49:37.758Z,90.380859
2023-08-29T06:50:46.444Z,89.978027
2023-08-29T06:51:55.120Z,90.423584
2023-08-29T06:53:03.801Z,90.527344
2023-08-29T06:54:12.529Z,90.789795
2023-08-29T06:55:20.202Z,89.916992
2023-08-29T06:56:29.883Z,90.72876
2023-08-29T06:57:39.572Z,90.484619
2023-08-29T06:58:48.229Z,90.380859
2023-08-29T06:59:56.944Z,89.770508
2023-08-29T07:01:06.661Z,90.136719
2023-08-29T07:02:16.282Z,89.733887
2023-08-29T07:03:24.045Z,89.874268
2023-08-29T07:04:31.656Z,89.813232
2023-08-29T07:05:41.386Z,90.582275
2023-08-29T07:06:50.055Z,90.484619
2023-08-29T07:07:58.746Z,91.033936
2023-08-29T07:09:07.450Z,90.887451
2023-08-29T07:10:17.173Z,90.991211
2023-08-29T07:11:26.838Z,90.686035
2023-08-29T07:12:35.556Z,91.088867
2023-08-29T07:13:43.242Z,90.74707
2023-08-29T07:14:52.899Z,90.789795
2023-08-29T07:16:02.583Z,91.235352
2023-08-29T07:17:12.422Z,92.248535
2023-08-29T07:18:22.237Z,91.235352
2023-08-29T07:19:31.914Z,91.741943
2023-08-29T07:20:41.634Z,91.741943
2023-08-29T07:21:50.331Z,91.497803
2023-08-29T07:23:00.964Z,90.887451
2023-08-29T07:24:10.718Z,91.296387
2023-08-29T07:25:20.429Z,91.088867
2023-08-29T07:26:29.109Z,91.296387
2023-08-29T07:27:37.813Z,90.991211
2023-08-29T07:28:46.536Z,90.789795
2023-08-29T07:29:56.252Z,91.131592
2023-08-29T07:31:05.013Z,91.235352
2023-08-29T07:32:12.664Z,91.638184
2023-08-29T07:33:22.302Z,91.741943
2023-08-29T07:34:31.981Z,91.888428
2023-08-29T07:35:40.741Z,91.986084
2023-08-29T07:36:49.493Z,92.449951
2023-08-29T07:37:58.222Z,91.699219
2023-08-29T07:39:07.009Z,91.192627
2023-08-29T07:40:14.676Z,91.192627
2023-08-29T07:41:23.425Z,91.088867
2023-08-29T07:42:33.187Z,91.296387
2023-08-29T07:43:41.872Z,91.394043
2023-08-29T07:44:51.566Z,91.699219
2023-08-29T07:46:01.346Z,91.296387
2023-08-29T07:47:15.330Z,91.699219
2023-08-29T07:48:21.683Z,92.004395
2023-08-29T07:49:29.388Z,91.497803
2023-08-29T07:50:38.123Z,91.497803
2023-08-29T07:51:47.796Z,91.595459
2023-08-29T07:52:56.494Z,91.540527
2023-08-29T07:54:06.290Z,91.900635
2023-08-29T07:55:14.958Z,91.699219
2023-08-29T07:56:24.661Z,91.149902
2023-08-29T07:57:34.326Z,91.351318
2023-08-29T07:58:43.014Z,91.900635
2023-08-29T07:59:50.742Z,91.552734
2023-08-29T08:01:00.437Z,91.204834
2023-08-29T08:02:09.143Z,90.496826
2023-08-29T08:03:18.820Z,90.948486
2023-08-29T08:04:27.506Z,90.948486
2023-08-29T08:05:36.216Z,90.74707
2023-08-29T08:06:45.928Z,91.149902
2023-08-29T08:07:54.587Z,91.204834
2023-08-29T08:09:02.291Z,90.802002
2023-08-29T08:10:11.970Z,90.704346
2023-08-29T08:11:21.930Z,90.496826
2023-08-29T08:12:31.656Z,90.39917
2023-08-29T08:13:40.329Z,90.155029
2023-08-29T08:14:49.007Z,90.155029
2023-08-29T08:16:00.183Z,89.691162
2023-08-29T08:17:09.371Z,90.032959
2023-08-29T08:18:17.074Z,90.948486
2023-08-29T08:19:26.725Z,90.539551
2023-08-29T08:20:35.402Z,90.948486
2023-08-29T08:21:45.133Z,91.046143
2023-08-29T08:22:55.759Z,91.247559
2023-08-29T08:24:05.458Z,91.204834
2023-08-29T08:25:15.106Z,90.759277
2023-08-29T08:26:22.794Z,90.356445
2023-08-29T08:27:30.486Z,90.600586
2023-08-29T08:28:40.148Z,90.39917
2023-08-29T08:29:48.836Z,90.356445
2023-08-29T08:30:57.498Z,90.39917
2023-08-29T08:32:06.220Z,90.29541
2023-08-29T08:33:15.946Z,90.39917
2023-08-29T08:34:25.594Z,90.454102
2023-08-29T08:35:38.445Z,90.496826
2023-08-29T08:36:44.904Z,90.197754
2023-08-29T08:37:54.641Z,90.802002
2023-08-29T08:39:04.459Z,90.496826
2023-08-29T08:40:14.128Z,90.844727
2023-08-29T08:41:22.812Z,90.905762
2023-08-29T08:42:30.473Z,90.905762
2023-08-29T08:43:40.213Z,90.704346
2023-08-29T08:44:48.937Z,90.704346
2023-08-29T08:45:56.607Z,91.003418
2023-08-29T08:47:06.255Z,90.496826
2023-08-29T08:48:14.940Z,90.704346
2023-08-29T08:49:24.617Z,91.412354
2023-08-29T08:50:33.390Z,90.600586
2023-08-29T08:51:43.087Z,90.802002
2023-08-29T08:52:51.760Z,91.107178
2023-08-29T08:54:01.467Z,91.107178
2023-08-29T08:55:11.134Z,91.003418
2023-08-29T08:56:20.828Z,91.467285
2023-08-29T08:57:30.575Z,90.759277
2023-08-29T08:58:39.254Z,90.802002
2023-08-29T08:59:48.961Z,90.905762
2023-08-29T09:00:56.656Z,91.204834
2023-08-29T09:02:04.373Z,91.204834
2023-08-29T09:03:14.151Z,91.003418
2023-08-29T09:04:22.774Z,90.905762
2023-08-29T09:05:32.423Z,91.064453
2023-08-29T09:06:41.070Z,90.661621
2023-08-29T09:07:50.731Z,90.661621
2023-08-29T09:09:00.416Z,89.648438
2023-08-29T09:10:08.114Z,89.94751
2023-08-29T09:11:16.765Z,90.618896
2023-08-29T09:12:26.419Z,90.777588
2023-08-29T09:13:36.229Z,90.472412
2023-08-29T09:14:44.850Z,90.270996
2023-08-29T09:15:53.545Z,89.868164
2023-08-29T09:17:02.225Z,90.228271
2023-08-29T09:18:11.909Z,90.026855
2023-08-29T09:19:21.590Z,89.361572
2023-08-29T09:20:29.274Z,89.459229
2023-08-29T09:21:38.928Z,89.96582
2023-08-29T09:22:47.608Z,90.167236
2023-08-29T09:23:56.272Z,90.06958
2023-08-29T09:25:06.004Z,90.167236
2023-08-29T09:26:15.717Z,89.923096
2023-08-29T09:27:25.358Z,89.215088
2023-08-29T09:28:33.038Z,89.416504
2023-08-29T09:29:40.668Z,89.215088
2023-08-29T09:30:50.357Z,89.056396
2023-08-29T09:31:59.030Z,89.318848
2023-08-29T09:33:08.742Z,89.520264
2023-08-29T09:34:18.424Z,89.416504
2023-08-29T09:35:27.047Z,89.624023
2023-08-29T09:36:36.727Z,89.117432
2023-08-29T09:37:45.388Z,89.117432
2023-08-29T09:38:53.118Z,88.769531
2023-08-29T09:40:02.826Z,88.873291
2023-08-29T09:41:12.510Z,88.323975
2023-08-29T09:42:22.255Z,87.719727
2023-08-29T09:43:31.877Z,87.817383
2023-08-29T09:44:39.522Z,87.860107
2023-08-29T09:45:49.326Z,88.323975
2023-08-29T09:46:56.966Z,87.561035
2023-08-29T09:48:05.914Z,88.409424
2023-08-29T09:49:15.325Z,88.208008
2023-08-29T09:50:24.997Z,88.305664
2023-08-29T09:51:33.687Z,88.146973
2023-08-29T09:52:42.377Z,88.104248
2023-08-29T09:53:51.198Z,88.812256
2023-08-29T09:55:00.880Z,88.7146
2023-08-29T09:56:07.551Z,88.85498
2023-08-29T09:57:15.253Z,89.807129
2023-08-29T09:58:25.283Z,89.703369
2023-08-29T09:59:34.617Z,90.313721
2023-08-29T10:00:44.343Z,90.515137
2023-08-29T10:01:53.003Z,90.673828
2023-08-29T10:03:02.847Z,89.96582
2023-08-29T10:04:12.484Z,90.368652
2023-08-29T10:05:20.159Z,90.06958
2023-08-29T10:06:27.820Z,89.825439
2023-08-29T10:07:37.574Z,89.923096
2023-08-29T10:08:46.278Z,89.624023
2023-08-29T10:09:55.937Z,89.215088
2023-08-29T10:11:05.648Z,89.318848
2023-08-29T10:12:15.378Z,89.416504
2023-08-29T10:13:25.027Z,89.825439
2023-08-29T10:14:32.761Z,89.361572
2023-08-29T10:15:41.382Z,89.624023
2023-08-29T10:16:51.155Z,89.520264
2023-08-29T10:17:59.826Z,89.013672
2023-08-29T10:19:08.492Z,89.276123
2023-08-29T10:20:17.525Z,89.117432
2023-08-29T10:21:26.184Z,89.416504
2023-08-29T10:22:35.945Z,89.172363
2023-08-29T10:23:44.633Z,89.72168
2023-08-29T10:24:52.313Z,89.318848
2023-08-29T10:26:01.984Z,89.678955
2023-08-29T10:27:10.664Z,89.416504
2023-08-29T10:28:19.437Z,90.124512
2023-08-29T10:29:29.091Z,90.429688
2023-08-29T10:30:38.831Z,90.692139
2023-08-29T10:31:48.495Z,89.880371
2023-08-29T10:32:58.204Z,89.678955
2023-08-29T10:34:05.899Z,90.283203
2023-08-29T10:35:15.571Z,90.142822
2023-08-29T10:36:25.261Z,90.039062
2023-08-29T10:37:33.983Z,89.63623
2023-08-29T10:38:43.687Z,89.73999
2023-08-29T10:39:52.370Z,89.233398
2023-08-29T10:41:02.100Z,89.093018
2023-08-29T10:42:11.824Z,88.726807
2023-08-29T10:43:21.764Z,88.830566
2023-08-29T10:44:31.465Z,88.586426
2023-08-29T10:45:40.140Z,88.183594
2023-08-29T10:46:49.995Z,88.726807
2023-08-29T10:47:59.529Z,89.129639
2023-08-29T10:49:08.245Z,88.989258
2023-08-29T10:50:16.931Z,89.093018
2023-08-29T10:51:26.720Z,88.891602
2023-08-29T10:52:35.304Z,88.989258
2023-08-29T10:53:43.979Z,88.244629
2023-08-29T10:54:54.134Z,88.446045
2023-08-29T10:56:02.808Z,87.634277
2023-08-29T10:57:12.469Z,87.536621
2023-08-29T10:58:20.110Z,88.342285
2023-08-29T10:59:29.826Z,87.939453
2023-08-29T11:00:39.491Z,87.896729
2023-08-29T11:01:48.178Z,87.030029
2023-08-29T11:02:58.350Z,86.627197
2023-08-29T11:04:07.548Z,86.932373
2023-08-29T11:05:17.244Z,87.030029
2023-08-29T11:06:26.947Z,87.939453
2023-08-29T11:07:35.603Z,87.37793
2023-08-29T11:08:44.263Z,87.475586
2023-08-29T11:09:53.949Z,87.316895
2023-08-29T11:11:02.775Z,88.208008
2023-08-29T11:12:11.521Z,89.013672
2023-08-29T11:13:21.188Z,88.85498
2023-08-29T11:14:29.841Z,89.868164
2023-08-29T11:15:39.535Z,89.520264
2023-08-29T11:16:48.216Z,89.624023
2023-08-29T11:17:56.991Z,89.520264
2023-08-29T11:19:06.656Z,89.923096
2023-08-29T11:20:16.345Z,89.624023
2023-08-29T11:21:25.041Z,89.215088
2023-08-29T11:22:34.717Z,89.581299
2023-08-29T11:23:43.393Z,89.73999
2023-08-29T11:24:53.094Z,88.525391
2023-08-29T11:26:01.778Z,88.787842
2023-08-29T11:27:10.427Z,88.684082
2023-08-29T11:28:20.135Z,88.745117
2023-08-29T11:29:29.812Z,88.342285
2023-08-29T11:30:44.100Z,88.098145
2023-08-29T11:31:50.149Z,88.037109
2023-08-29T11:32:59.837Z,88.201904
2023-08-29T11:34:11.647Z,87.432861
2023-08-29T11:35:19.354Z,87.835693
2023-08-29T11:36:27.001Z,87.634277
2023-08-29T11:37:36.727Z,87.432861
2023-08-29T11:38:46.433Z,87.176514
2023-08-29T11:39:56.126Z,88.079834
2023-08-29T11:41:08.422Z,87.921143
2023-08-29T11:42:19.664Z,87.982178
2023-08-29T11:43:32.447Z,88.38501
2023-08-29T11:44:42.970Z,88.183594
2023-08-29T11:45:50.175Z,88.244629
2023-08-29T11:46:59.182Z,87.939453
2023-08-29T11:48:08.121Z,87.738037
2023-08-29T11:49:17.697Z,87.475586
2023-08-29T11:50:27.327Z,87.921143
2023-08-29T11:51:35.993Z,87.817383
2023-08-29T11:52:45.710Z,88.122559
2023-08-29T11:53:55.462Z,88.122559
2023-08-29T11:55:04.123Z,87.817383
2023-08-29T11:56:13.791Z,88.079834
2023-08-29T11:57:22.507Z,87.982178
2023-08-29T11:58:31.251Z,87.878418
2023-08-29T11:59:39.902Z,87.335205
2023-08-29T12:00:49.614Z,87.335205
2023-08-29T12:01:59.329Z,87.37793
2023-08-29T12:03:07.997Z,87.780762
2023-08-29T12:04:17.751Z,87.536621
2023-08-29T12:05:27.414Z,87.738037
2023-08-29T12:06:37.093Z,87.432861
2023-08-29T12:07:45.821Z,86.828613
2023-08-29T12:08:53.489Z,87.213135
2023-08-29T12:10:03.169Z,87.677002
2023-08-29T12:11:12.865Z,87.677002
2023-08-29T12:12:21.534Z,87.982178
2023-08-29T12:13:32.303Z,87.634277
2023-08-29T12:14:41.971Z,87.634277
2023-08-29T12:15:50.635Z,87.432861
2023-08-29T12:16:59.324Z,87.597656
2023-08-29T12:18:08.252Z,87.432861
2023-08-29T12:19:16.687Z,87.536621
2023-08-29T12:20:26.352Z,86.932373
2023-08-29T12:21:34.070Z,87.072754
2023-08-29T12:22:43.716Z,87.414551
2023-08-29T12:23:53.402Z,88.568115
2023-08-29T12:25:02.053Z,88.7146
2023-08-29T12:26:10.713Z,89.074707
2023-08-29T12:27:19.405Z,89.074707
2023-08-29T12:28:28.046Z,88.928223
2023-08-29T12:29:36.804Z,88.62915
2023-08-29T12:30:45.508Z,88.427734
2023-08-29T12:31:55.152Z,89.031982
2023-08-29T12:33:03.902Z,89.031982
2023-08-29T12:34:13.612Z,88.769531
2023-08-29T12:35:21.307Z,89.129639
2023-08-29T12:36:29.950Z,88.830566
2023-08-29T12:37:39.744Z,88.830566
2023-08-29T12:38:49.321Z,89.031982
2023-08-29T12:39:57.006Z,89.129639
2023-08-29T12:41:06.670Z,89.538574
2023-08-29T12:42:16.326Z,89.538574
2023-08-29T12:43:24.975Z,89.129639
2023-08-29T12:44:33.642Z,88.684082
2023-08-29T12:45:53.191Z,88.647461
2023-08-29T12:46:53.051Z,88.745117
2023-08-29T12:48:02.778Z,88.848877
2023-08-29T12:49:12.390Z,88.446045
2023-08-29T12:50:22.148Z,87.939453
2023-08-29T12:51:31.847Z,88.140869
2023-08-29T12:52:39.510Z,88.891602
2023-08-29T12:53:48.205Z,89.190674
2023-08-29T12:54:57.922Z,89.190674
2023-08-29T12:56:05.683Z,89.538574
2023-08-29T12:57:14.337Z,89.39209
2023-08-29T12:58:24.083Z,89.093018
2023-08-29T12:59:33.782Z,89.233398
2023-08-29T13:00:41.470Z,89.73999
2023-08-29T13:01:50.125Z,89.73999
2023-08-29T13:02:58.881Z,89.941406
2023-08-29T13:04:08.503Z,90.142822
2023-08-29T13:05:17.185Z,90.039062
2023-08-29T13:06:26.840Z,90.039062
2023-08-29T13:07:36.487Z,89.782715
2023-08-29T13:08:45.137Z,89.678955
2023-08-29T13:09:54.848Z,89.318848
2023-08-29T13:11:04.516Z,89.825439